createdAt,value
2023-04-17T00:01:03.963Z,12.10
2023-04-17T00:03:33.084Z,12.20
2023-04-17T00:06:01.627Z,12.30
2023-04-17T00:08:31.397Z,12.30
2023-04-17T00:11:06.980Z,12.30
2023-04-17T00:13:35.956Z,12.30
2023-04-17T00:16:04.402Z,12.40
2023-04-17T00:18:32.833Z,12.30
2023-04-17T00:21:01.302Z,12.40
2023-04-17T00:23:31.134Z,12.50
2023-04-17T00:25:59.555Z,12.50
2023-04-17T00:28:28.018Z,12.50
2023-04-17T00:30:58.295Z,12.40
2023-04-17T00:33:26.736Z,12.40
2023-04-17T00:35:55.147Z,12.50
2023-04-17T00:38:23.505Z,12.40
2023-04-17T00:40:53.382Z,12.40
2023-04-17T00:43:21.778Z,12.40
2023-04-17T00:45:50.847Z,12.30
2023-04-17T00:48:19.530Z,12.30
2023-04-17T00:50:47.985Z,12.40
2023-04-17T00:53:16.480Z,12.50
2023-04-17T00:55:45.836Z,12.50
2023-04-17T00:58:16.370Z,12.40
2023-04-17T01:00:45.004Z,12.50
2023-04-17T01:03:14.529Z,12.60
2023-04-17T01:05:43.111Z,12.60
2023-04-17T01:08:11.871Z,12.50
2023-04-17T01:10:40.298Z,12.40
2023-04-17T01:13:09.092Z,12.40
2023-04-17T01:15:38.883Z,12.30
2023-04-17T01:18:07.910Z,12.20
2023-04-17T01:20:36.431Z,12.10
2023-04-17T01:23:04.836Z,12.10
2023-04-17T01:25:34.615Z,12.20
2023-04-17T01:28:03.092Z,12.20
2023-04-17T01:30:31.586Z,12.20
2023-04-17T01:33:00.144Z,12.20
2023-04-17T01:35:28.619Z,12.30
2023-04-17T01:37:57.056Z,12.30
2023-04-17T01:40:25.431Z,12.30
2023-04-17T01:42:55.350Z,12.30
2023-04-17T01:45:23.764Z,12.30
2023-04-17T01:47:52.350Z,12.30
2023-04-17T01:50:21.052Z,12.40
2023-04-17T01:52:49.522Z,12.40
2023-04-17T01:55:18.082Z,12.40
2023-04-17T01:57:46.546Z,12.20
2023-04-17T02:00:17.098Z,12.20
2023-04-17T02:02:45.739Z,12.30
2023-04-17T02:05:14.238Z,12.30
2023-04-17T02:07:42.618Z,12.30
2023-04-17T02:10:11.352Z,12.20
2023-04-17T02:12:39.753Z,12.30
2023-04-17T02:15:08.805Z,12.20
2023-04-17T02:17:38.665Z,12.20
2023-04-17T02:20:08.101Z,12.20
2023-04-17T02:22:36.519Z,12.00
2023-04-17T02:25:05.155Z,12.00
2023-04-17T02:27:33.649Z,11.90
2023-04-17T02:30:02.042Z,11.90
2023-04-17T02:32:30.580Z,11.90
2023-04-17T02:35:00.430Z,12.00
2023-04-17T02:37:28.792Z,12.00
2023-04-17T02:39:57.228Z,12.00
2023-04-17T02:42:25.752Z,12.00
2023-04-17T02:44:54.210Z,12.10
2023-04-17T02:47:22.695Z,12.10
2023-04-17T02:49:51.212Z,12.00
2023-04-17T02:52:21.030Z,12.00
2023-04-17T02:54:49.464Z,12.00
2023-04-17T02:57:17.941Z,12.00
2023-04-17T02:59:46.361Z,12.00
2023-04-17T03:02:14.879Z,12.00
2023-04-17T03:04:44.152Z,12.10
2023-04-17T03:07:13.718Z,12.10
2023-04-17T03:09:45.799Z,12.00
2023-04-17T03:12:14.369Z,12.00
2023-04-17T03:14:43.261Z,11.90
2023-04-17T03:17:14.196Z,11.90
2023-04-17T03:19:42.640Z,11.90
2023-04-17T03:22:13.251Z,11.80
2023-04-17T03:24:43.393Z,11.80
2023-04-17T03:27:11.750Z,11.80
2023-04-17T03:29:40.195Z,11.80
2023-04-17T03:32:08.637Z,11.80
2023-04-17T03:34:37.140Z,11.90
2023-04-17T03:37:05.574Z,12.00
2023-04-17T03:39:33.985Z,12.00
2023-04-17T03:42:03.772Z,12.00
2023-04-17T03:44:32.173Z,12.00
2023-04-17T03:47:00.792Z,12.00
2023-04-17T03:49:29.217Z,12.10
2023-04-17T03:51:57.651Z,12.20
2023-04-17T03:54:29.884Z,12.10
2023-04-17T03:56:58.247Z,12.00
2023-04-17T03:59:28.079Z,12.00
2023-04-17T04:01:56.892Z,12.00
2023-04-17T04:04:25.640Z,12.00
2023-04-17T04:06:58.032Z,12.00
2023-04-17T04:09:26.558Z,12.10
2023-04-17T04:11:54.940Z,12.20
2023-04-17T04:14:23.416Z,12.20
2023-04-17T04:16:53.211Z,12.20
2023-04-17T04:19:21.604Z,12.20
2023-04-17T04:21:50.063Z,12.00
2023-04-17T04:24:20.395Z,12.00
2023-04-17T04:26:49.819Z,11.90
2023-04-17T04:29:18.954Z,11.90
2023-04-17T04:31:50.900Z,11.90
2023-04-17T04:34:21.688Z,11.90
2023-04-17T04:36:51.074Z,11.90
2023-04-17T04:39:20.886Z,12.00
2023-04-17T04:41:50.700Z,11.90
2023-04-17T04:44:19.375Z,11.90
2023-04-17T04:46:47.877Z,11.80
2023-04-17T04:49:16.366Z,11.90
2023-04-17T04:51:46.256Z,12.00
2023-04-17T04:54:14.657Z,12.00
2023-04-17T04:56:45.012Z,12.00
2023-04-17T04:59:13.571Z,11.90
2023-04-17T05:01:42.120Z,11.90
2023-04-17T05:04:10.797Z,11.80
2023-04-17T05:06:39.310Z,11.80
2023-04-17T05:09:09.102Z,11.80
2023-04-17T05:11:37.640Z,11.90
2023-04-17T05:14:06.050Z,11.90
2023-04-17T05:16:34.520Z,11.80
2023-04-17T05:19:03.029Z,11.80
2023-04-17T05:21:31.451Z,11.90
2023-04-17T05:23:59.845Z,12.00
2023-04-17T05:26:29.727Z,12.00
2023-04-17T05:28:58.409Z,12.10
2023-04-17T05:31:27.311Z,12.10
2023-04-17T05:33:55.798Z,12.10
2023-04-17T05:36:24.207Z,12.20
2023-04-17T05:38:52.649Z,12.30
2023-04-17T05:41:21.128Z,12.20
2023-04-17T05:43:51.063Z,12.20
2023-04-17T05:46:19.701Z,12.30
2023-04-17T05:48:48.164Z,12.30
2023-04-17T05:51:16.585Z,12.20
2023-04-17T05:53:45.619Z,12.30
2023-04-17T05:56:14.090Z,12.30
2023-04-17T05:58:42.461Z,12.30
2023-04-17T06:01:13.092Z,12.40
2023-04-17T06:03:41.777Z,12.40
2023-04-17T06:06:10.355Z,12.40
2023-04-17T06:08:38.712Z,12.40
2023-04-17T06:11:07.731Z,12.30
2023-04-17T06:13:36.117Z,12.30
2023-04-17T06:16:04.468Z,12.40
2023-04-17T06:18:34.355Z,12.50
2023-04-17T06:21:02.864Z,12.50
2023-04-17T06:23:31.239Z,12.50
2023-04-17T06:25:59.628Z,12.60
2023-04-17T06:28:27.986Z,12.60
2023-04-17T06:30:56.518Z,12.60
2023-04-17T06:33:26.768Z,12.80
2023-04-17T06:35:56.854Z,12.80
2023-04-17T06:38:25.421Z,12.80
2023-04-17T06:40:53.864Z,12.90
2023-04-17T06:43:22.309Z,12.90
2023-04-17T06:45:51.003Z,12.90
2023-04-17T06:48:19.526Z,12.80
2023-04-17T06:50:47.942Z,12.90
2023-04-17T06:53:17.723Z,13.00
2023-04-17T06:55:46.333Z,13.10
2023-04-17T06:58:14.874Z,13.00
2023-04-17T07:00:43.406Z,12.90
2023-04-17T07:03:13.975Z,12.90
2023-04-17T07:05:44.630Z,12.70
2023-04-17T07:08:13.142Z,12.70
2023-04-17T07:10:42.906Z,12.70
2023-04-17T07:13:11.321Z,12.70
2023-04-17T07:15:39.794Z,12.70
2023-04-17T07:18:08.243Z,12.80
2023-04-17T07:20:36.671Z,12.80
2023-04-17T07:23:05.044Z,12.70
2023-04-17T07:25:33.455Z,12.70
2023-04-17T07:28:04.525Z,12.80
2023-04-17T07:30:33.171Z,12.70
2023-04-17T07:33:01.749Z,12.70
2023-04-17T07:35:30.403Z,12.70
2023-04-17T07:38:01.500Z,12.70
2023-04-17T07:40:30.062Z,12.70
2023-04-17T07:42:58.505Z,12.60
2023-04-17T07:45:28.681Z,12.60
2023-04-17T07:47:57.088Z,12.60
2023-04-17T07:50:25.816Z,12.60
2023-04-17T07:52:54.244Z,12.60
2023-04-17T07:55:22.784Z,12.60
2023-04-17T07:57:51.817Z,12.60
2023-04-17T08:00:21.620Z,12.70
2023-04-17T08:02:51.797Z,12.80
2023-04-17T08:05:20.448Z,12.70
2023-04-17T08:07:48.926Z,12.80
2023-04-17T08:10:17.351Z,12.90
2023-04-17T08:12:45.974Z,12.80
2023-04-17T08:15:14.412Z,12.80
2023-04-17T08:17:42.978Z,12.80
2023-04-17T08:20:13.477Z,12.80
2023-04-17T08:22:42.884Z,12.80
2023-04-17T08:25:12.082Z,12.80
2023-04-17T08:27:41.493Z,12.70
2023-04-17T08:30:12.873Z,12.70
2023-04-17T08:32:43.013Z,12.70
2023-04-17T08:35:13.574Z,12.80
2023-04-17T08:37:42.522Z,12.70
2023-04-17T08:40:12.258Z,12.70
2023-04-17T08:42:41.767Z,12.70
2023-04-17T08:45:11.037Z,12.70
2023-04-17T08:47:40.177Z,12.70
2023-04-17T08:50:09.743Z,12.50
2023-04-17T08:52:43.748Z,12.50
2023-04-17T08:55:13.981Z,12.40
2023-04-17T08:57:57.239Z,12.20
2023-04-17T09:00:26.348Z,12.20
2023-04-17T09:02:55.875Z,12.20
2023-04-17T09:05:25.371Z,12.20
2023-04-17T09:08:08.246Z,12.30
2023-04-17T09:10:37.796Z,12.30
2023-04-17T09:13:06.345Z,12.20
2023-04-17T09:15:35.291Z,12.20
2023-04-17T09:18:03.967Z,12.30
2023-04-17T09:20:32.660Z,12.30
2023-04-17T09:23:03.666Z,12.30
2023-04-17T09:25:32.269Z,12.20
2023-04-17T09:28:09.969Z,12.20
2023-04-17T09:30:39.001Z,12.10
2023-04-17T09:33:08.518Z,12.10
2023-04-17T09:35:39.901Z,12.10
2023-04-17T09:38:09.870Z,12.00
2023-04-17T09:40:38.841Z,12.00
2023-04-17T09:43:09.778Z,12.00
2023-04-17T09:45:42.737Z,12.00
2023-04-17T09:48:12.269Z,11.90
2023-04-17T09:50:40.971Z,11.80
2023-04-17T09:53:11.567Z,11.80
2023-04-17T09:55:43.695Z,11.80
2023-04-17T09:58:12.403Z,11.80
2023-04-17T10:00:42.984Z,11.90
2023-04-17T10:03:14.891Z,12.00
2023-04-17T10:05:43.899Z,12.10
2023-04-17T10:08:13.748Z,12.10
2023-04-17T10:10:42.212Z,12.10
2023-04-17T10:13:12.715Z,12.10
2023-04-17T10:15:41.200Z,12.10
2023-04-17T10:18:23.415Z,12.20
2023-04-17T10:20:53.483Z,12.20
2023-04-17T10:23:31.461Z,12.20
2023-04-17T10:26:19.220Z,12.20
2023-04-17T10:28:48.447Z,12.20
2023-04-17T10:31:16.916Z,12.20
2023-04-17T10:33:49.741Z,12.20
2023-04-17T10:36:32.926Z,12.20
2023-04-17T10:39:14.645Z,12.20
2023-04-17T10:41:58.025Z,12.20
2023-04-17T10:44:26.487Z,12.20
2023-04-17T10:46:54.984Z,12.30
2023-04-17T10:49:23.414Z,12.30
2023-04-17T10:51:52.731Z,12.30
2023-04-17T10:54:22.690Z,12.30
2023-04-17T10:56:55.909Z,12.30
2023-04-17T10:59:30.131Z,12.30
2023-04-17T11:02:01.238Z,12.30
2023-04-17T11:04:30.843Z,12.20
2023-04-17T11:06:59.550Z,12.30
2023-04-17T11:09:29.911Z,12.40
2023-04-17T11:11:59.950Z,12.40
2023-04-17T11:14:30.434Z,12.40
2023-04-17T11:16:59.157Z,12.30
2023-04-17T11:19:27.705Z,12.30
2023-04-17T11:21:58.903Z,12.40
2023-04-17T11:24:27.857Z,12.40
2023-04-17T11:26:59.870Z,12.50
2023-04-17T11:29:28.751Z,12.60
2023-04-17T11:31:58.170Z,12.60
2023-04-17T11:34:27.141Z,12.60
2023-04-17T11:36:56.817Z,12.50
2023-04-17T11:39:25.798Z,12.70
2023-04-17T11:41:54.266Z,12.70
2023-04-17T11:44:24.347Z,12.60
2023-04-17T11:46:52.843Z,12.60
2023-04-17T11:49:25.602Z,12.60
2023-04-17T11:51:54.079Z,12.60
2023-04-17T11:54:26.109Z,12.60
2023-04-17T11:57:01.371Z,12.50
2023-04-17T11:59:34.707Z,12.50
2023-04-17T12:02:03.778Z,12.60
2023-04-17T12:04:34.901Z,12.50
2023-04-17T12:07:04.168Z,12.60
2023-04-17T12:09:32.901Z,12.60
2023-04-17T12:12:01.864Z,12.50
2023-04-17T12:14:30.434Z,12.50
2023-04-17T12:17:01.295Z,12.40
2023-04-17T12:19:31.924Z,12.30
2023-04-17T12:22:00.915Z,12.30
2023-04-17T12:24:29.315Z,12.40
2023-04-17T12:26:58.825Z,12.40
2023-04-17T12:29:40.557Z,12.30
2023-04-17T12:32:12.896Z,12.30
2023-04-17T12:34:41.509Z,12.30
2023-04-17T12:37:10.226Z,12.40
2023-04-17T12:39:38.726Z,12.30
2023-04-17T12:42:07.134Z,12.40
2023-04-17T12:44:35.705Z,12.40
2023-04-17T12:47:04.242Z,12.40
2023-04-17T12:49:34.096Z,12.20
2023-04-17T12:52:03.845Z,12.20
2023-04-17T12:54:33.213Z,12.20
2023-04-17T12:57:02.793Z,12.40
2023-04-17T12:59:31.285Z,12.50
2023-04-17T13:01:59.857Z,12.50
2023-04-17T13:04:28.468Z,12.50
2023-04-17T13:06:58.905Z,12.70
2023-04-17T13:09:27.410Z,12.70
2023-04-17T13:11:55.936Z,12.70
2023-04-17T13:14:24.503Z,12.80
2023-04-17T13:16:53.903Z,12.80
2023-04-17T13:19:22.350Z,13.00
2023-04-17T13:21:51.821Z,12.90
2023-04-17T13:24:21.707Z,13.00
2023-04-17T13:26:50.133Z,12.90
2023-04-17T13:29:19.743Z,13.00
2023-04-17T13:31:48.577Z,12.90
2023-04-17T13:34:16.979Z,12.80
2023-04-17T13:36:45.507Z,12.60
2023-04-17T13:39:15.015Z,12.60
2023-04-17T13:41:45.014Z,12.50
2023-04-17T13:44:13.852Z,12.50
2023-04-17T13:46:42.368Z,12.40
2023-04-17T13:49:11.089Z,12.40
2023-04-17T13:51:39.757Z,12.50
2023-04-17T13:54:09.286Z,12.40
2023-04-17T13:56:37.683Z,12.40
2023-04-17T13:59:07.516Z,12.30
2023-04-17T14:01:36.092Z,12.30
2023-04-17T14:04:04.644Z,12.40
2023-04-17T14:06:34.789Z,12.40
2023-04-17T14:09:03.227Z,12.40
2023-04-17T14:11:31.618Z,12.40
2023-04-17T14:14:00.024Z,12.40
2023-04-17T14:16:30.252Z,12.50
2023-04-17T14:19:03.858Z,12.60
2023-04-17T14:21:41.699Z,12.60
2023-04-17T14:24:10.168Z,12.70
2023-04-17T14:26:39.253Z,12.60
2023-04-17T14:29:07.700Z,12.50
2023-04-17T14:31:37.577Z,12.60
2023-04-17T14:34:05.987Z,12.50
2023-04-17T14:36:35.324Z,12.30
2023-04-17T14:39:03.973Z,12.30
2023-04-17T14:41:34.185Z,12.30
2023-04-17T14:44:02.841Z,12.30
2023-04-17T14:46:31.475Z,12.30
2023-04-17T14:49:01.295Z,12.30
2023-04-17T14:51:30.645Z,12.30
2023-04-17T14:53:59.315Z,12.40
2023-04-17T14:56:27.743Z,12.40
2023-04-17T14:58:56.248Z,12.40
2023-04-17T15:01:24.811Z,12.40
2023-04-17T15:03:53.754Z,12.40
2023-04-17T15:06:23.909Z,12.50
2023-04-17T15:08:52.356Z,12.40
2023-04-17T15:11:21.073Z,12.30
2023-04-17T15:13:49.532Z,12.40
2023-04-17T15:16:18.075Z,12.40
2023-04-17T15:18:46.524Z,12.40
2023-04-17T15:21:16.347Z,12.30
2023-04-17T15:23:46.170Z,12.30
2023-04-17T15:26:14.772Z,12.40
2023-04-17T15:28:43.123Z,12.40
2023-04-17T15:31:11.555Z,12.40
2023-04-17T15:33:39.942Z,12.40
2023-04-17T15:36:08.581Z,12.40
2023-04-17T15:38:36.979Z,12.50
2023-04-17T15:41:07.897Z,12.30
2023-04-17T15:43:37.222Z,12.30
2023-04-17T15:46:05.817Z,12.20
2023-04-17T15:48:34.339Z,12.20
2023-04-17T15:51:04.365Z,12.20
2023-04-17T15:53:32.824Z,12.30
2023-04-17T15:56:01.341Z,12.30
2023-04-17T15:58:31.154Z,12.40
2023-04-17T16:00:59.590Z,12.40
2023-04-17T16:03:28.065Z,12.40
2023-04-17T16:05:56.612Z,12.30
2023-04-17T16:08:25.026Z,12.30
2023-04-17T16:10:53.446Z,12.30
2023-04-17T16:13:22.221Z,12.20
2023-04-17T16:15:52.109Z,12.30
2023-04-17T16:18:20.648Z,12.30
2023-04-17T16:20:49.141Z,12.30
2023-04-17T16:23:18.067Z,12.40
2023-04-17T16:25:46.498Z,12.40
2023-04-17T16:28:14.914Z,12.50
2023-04-17T16:30:43.341Z,12.40
2023-04-17T16:33:13.106Z,12.50
2023-04-17T16:35:41.521Z,12.40
2023-04-17T16:38:09.945Z,12.20
2023-04-17T16:40:38.380Z,12.20
2023-04-17T16:43:06.890Z,12.10
2023-04-17T16:45:37.130Z,12.10
2023-04-17T16:48:05.761Z,12.20
2023-04-17T16:50:35.743Z,12.20
2023-04-17T16:53:04.211Z,12.20
2023-04-17T16:55:32.895Z,12.20
2023-04-17T16:58:04.395Z,12.30
2023-04-17T17:00:33.021Z,12.30
2023-04-17T17:03:01.703Z,12.40
2023-04-17T17:05:30.220Z,12.40
2023-04-17T17:08:00.678Z,12.40
2023-04-17T17:10:29.506Z,12.30
2023-04-17T17:12:57.948Z,12.40
2023-04-17T17:15:26.331Z,12.40
2023-04-17T17:17:54.745Z,12.40
2023-04-17T17:20:23.297Z,12.40
2023-04-17T17:22:51.727Z,12.40
2023-04-17T17:25:21.600Z,12.40
2023-04-17T17:27:50.272Z,12.40
2023-04-17T17:30:19.050Z,12.30
2023-04-17T17:32:47.570Z,12.30
2023-04-17T17:35:16.018Z,12.30
2023-04-17T17:37:44.409Z,12.40
2023-04-17T17:40:13.077Z,12.30
2023-04-17T17:42:42.858Z,12.40
2023-04-17T17:45:11.677Z,12.50
2023-04-17T17:47:41.059Z,12.50
2023-04-17T17:50:09.937Z,12.60
2023-04-17T17:52:38.531Z,12.70
2023-04-17T17:55:07.338Z,12.70
2023-04-17T17:57:46.072Z,12.70
2023-04-17T18:00:19.046Z,12.80
2023-04-17T18:02:47.595Z,12.80
2023-04-17T18:05:16.130Z,12.70
2023-04-17T18:07:44.509Z,12.70
2023-04-17T18:10:12.975Z,12.80
2023-04-17T18:12:41.360Z,12.80
2023-04-17T18:15:10.318Z,12.80
2023-04-17T18:17:40.263Z,12.80
2023-04-17T18:20:09.533Z,12.90
2023-04-17T18:22:38.497Z,12.80
2023-04-17T18:25:07.386Z,12.80
2023-04-17T18:27:37.057Z,12.80
2023-04-17T18:30:06.540Z,12.80
2023-04-17T18:32:35.253Z,12.90
2023-04-17T18:35:05.545Z,12.80
2023-04-17T18:37:33.941Z,12.80
2023-04-17T18:40:02.487Z,12.70
2023-04-17T18:42:30.868Z,12.70
2023-04-17T18:44:59.332Z,12.70
2023-04-17T18:47:28.069Z,12.70
2023-04-17T18:49:56.677Z,12.70
2023-04-17T18:52:26.514Z,12.80
2023-04-17T18:54:55.005Z,12.70
2023-04-17T18:57:23.435Z,12.60
2023-04-17T18:59:51.822Z,12.70
2023-04-17T19:02:20.200Z,12.60
2023-04-17T19:04:48.647Z,12.60
2023-04-17T19:07:17.975Z,12.60
2023-04-17T19:09:47.866Z,12.70
2023-04-17T19:12:16.656Z,12.70
2023-04-17T19:14:45.033Z,12.70
2023-04-17T19:17:13.732Z,12.70
2023-04-17T19:19:42.165Z,12.70
2023-04-17T19:22:10.582Z,12.60
2023-04-17T19:24:39.043Z,12.60
2023-04-17T19:27:08.901Z,12.50
2023-04-17T19:29:37.304Z,12.50
2023-04-17T19:32:06.156Z,12.40
2023-04-17T19:34:34.558Z,12.50
2023-04-17T19:37:03.076Z,12.50
2023-04-17T19:39:31.646Z,12.50
2023-04-17T19:42:00.152Z,12.60
2023-04-17T19:44:30.068Z,12.50
2023-04-17T19:46:58.652Z,12.50
2023-04-17T19:49:27.134Z,12.50
2023-04-17T19:51:55.524Z,12.50
2023-04-17T19:54:24.004Z,12.50
2023-04-17T19:56:52.416Z,12.50
2023-04-17T19:59:20.814Z,12.50
2023-04-17T20:01:51.797Z,12.50
2023-04-17T20:04:20.502Z,12.50
2023-04-17T20:06:49.045Z,12.40
2023-04-17T20:09:18.171Z,12.50
2023-04-17T20:11:46.747Z,12.40
2023-04-17T20:14:15.825Z,12.60
2023-04-17T20:16:46.421Z,12.60
2023-04-17T20:19:16.752Z,12.60
2023-04-17T20:21:48.149Z,12.60
2023-04-17T20:24:17.001Z,12.70
2023-04-17T20:26:45.697Z,12.60
2023-04-17T20:29:14.366Z,12.70
2023-04-17T20:31:43.131Z,12.60
2023-04-17T20:34:11.689Z,12.60
2023-04-17T20:36:41.550Z,12.70
2023-04-17T20:39:11.106Z,12.60
2023-04-17T20:41:39.787Z,12.60
2023-04-17T20:44:08.237Z,12.60
2023-04-17T20:46:36.720Z,12.70
2023-04-17T20:49:05.189Z,12.70
2023-04-17T20:51:33.649Z,12.70
2023-04-17T20:54:03.449Z,12.60
2023-04-17T20:56:31.810Z,12.70
2023-04-17T20:59:00.215Z,12.70
2023-04-17T21:01:28.622Z,12.70
2023-04-17T21:03:57.080Z,12.70
2023-04-17T21:06:26.866Z,12.80
2023-04-17T21:08:55.392Z,12.70
2023-04-17T21:11:25.168Z,12.70
2023-04-17T21:13:53.571Z,12.80
2023-04-17T21:16:22.102Z,12.80
2023-04-17T21:18:50.596Z,12.80
2023-04-17T21:21:18.975Z,12.80
2023-04-17T21:23:47.383Z,12.70
2023-04-17T21:26:15.788Z,12.80
2023-04-17T21:28:45.587Z,12.80
2023-04-17T21:31:14.892Z,12.80
2023-04-17T21:33:43.313Z,12.80
2023-04-17T21:36:11.747Z,12.80
2023-04-17T21:38:40.298Z,12.80
2023-04-17T21:41:09.098Z,12.80
2023-04-17T21:43:37.617Z,12.90
2023-04-17T21:46:11.432Z,12.90
2023-04-17T21:48:40.116Z,12.90
2023-04-17T21:51:08.580Z,12.90
2023-04-17T21:53:37.582Z,12.90
2023-04-17T21:56:07.090Z,12.90
2023-04-17T21:58:35.695Z,12.80
2023-04-17T22:01:04.214Z,12.80
2023-04-17T22:03:34.132Z,12.80
2023-04-17T22:06:02.604Z,12.70
2023-04-17T22:08:31.352Z,12.70
2023-04-17T22:10:59.803Z,12.80
2023-04-17T22:13:30.284Z,12.70
2023-04-17T22:15:58.713Z,12.70
2023-04-17T22:18:27.347Z,12.70
2023-04-17T22:20:57.119Z,12.70
2023-04-17T22:23:25.558Z,12.70
2023-04-17T22:25:54.035Z,12.70
2023-04-17T22:28:22.451Z,12.70
2023-04-17T22:30:51.199Z,12.70
2023-04-17T22:33:19.659Z,12.80
2023-04-17T22:35:48.100Z,12.70
2023-04-17T22:38:19.038Z,12.70
2023-04-17T22:40:47.543Z,12.70
2023-04-17T22:43:15.912Z,12.80
2023-04-17T22:45:44.649Z,12.80
2023-04-17T22:48:13.128Z,12.80
2023-04-17T22:50:41.590Z,12.90
2023-04-17T22:53:10.061Z,12.90
2023-04-17T22:55:39.844Z,13.00
2023-04-17T22:58:08.210Z,13.00
2023-04-17T23:00:36.920Z,13.00
2023-04-17T23:03:05.451Z,12.90
2023-04-17T23:05:33.850Z,12.90
2023-04-17T23:08:02.267Z,12.90
2023-04-17T23:10:30.750Z,12.90
2023-04-17T23:13:00.589Z,12.90
2023-04-17T23:15:29.111Z,12.90
2023-04-17T23:17:57.564Z,12.90
2023-04-17T23:20:25.992Z,12.90
2023-04-17T23:22:54.402Z,12.80
2023-04-17T23:25:22.927Z,12.70
2023-04-17T23:27:51.374Z,12.80
2023-04-17T23:30:21.483Z,12.80
2023-04-17T23:32:51.204Z,12.70
2023-04-17T23:35:19.753Z,12.80
2023-04-17T23:37:48.110Z,12.80
2023-04-17T23:40:16.539Z,12.80
2023-04-17T23:42:45.302Z,12.80
2023-04-17T23:45:14.221Z,12.80
2023-04-17T23:47:44.087Z,12.80
2023-04-17T23:50:12.685Z,12.70
2023-04-17T23:52:41.175Z,12.70
2023-04-17T23:55:10.057Z,12.70
2023-04-17T23:57:38.572Z,12.70
